createdAt,value
2019-04-03T00:00:58.546Z,80.53
2019-04-03T00:03:25.283Z,79.99
2019-04-03T00:05:51.948Z,80.35
2019-04-03T00:08:18.643Z,79.75
2019-04-03T00:10:45.425Z,80.34
2019-04-03T00:13:12.037Z,80.67
2019-04-03T00:15:38.706Z,81.63
2019-04-03T00:18:05.491Z,81.51
2019-04-03T00:20:32.158Z,82.07
2019-04-03T00:22:58.850Z,82.57
2019-04-03T00:25:25.631Z,83.14
2019-04-03T00:27:52.772Z,82.53
2019-04-03T00:30:21.872Z,82.53
2019-04-03T00:32:48.371Z,83.06
2019-04-03T00:35:15.033Z,83.30
2019-04-03T00:37:41.823Z,82.92
2019-04-03T00:40:08.596Z,81.07
2019-04-03T00:42:35.383Z,81.04
2019-04-03T00:45:24.535Z,81.16
2019-04-03T00:47:51.866Z,81.06
2019-04-03T00:50:18.634Z,81.54
2019-04-03T00:52:45.448Z,81.87
2019-04-03T00:55:12.196Z,81.53
2019-04-03T00:57:38.996Z,82.11
2019-04-03T01:00:11.643Z,81.76
2019-04-03T01:02:38.319Z,82.21
2019-04-03T01:05:05.394Z,82.70
2019-04-03T01:07:32.173Z,82.96
2019-04-03T01:09:59.603Z,82.39
2019-04-03T01:12:26.968Z,82.54
2019-04-03T01:14:54.376Z,82.52
2019-04-03T01:17:21.266Z,82.99
2019-04-03T01:19:48.136Z,83.26
2019-04-03T01:22:14.773Z,83.50
2019-04-03T01:24:41.929Z,83.45
2019-04-03T01:27:11.175Z,83.41
2019-04-03T01:29:37.382Z,83.41
2019-04-03T01:32:04.166Z,83.28
2019-04-03T01:34:30.861Z,81.91
2019-04-03T01:36:57.837Z,80.46
2019-04-03T01:39:24.651Z,80.96
2019-04-03T01:41:52.081Z,81.42
2019-04-03T01:44:18.843Z,82.20
2019-04-03T01:46:45.446Z,81.79
2019-04-03T01:49:12.966Z,82.22
2019-04-03T01:51:39.661Z,82.25
2019-04-03T01:54:06.443Z,82.23
2019-04-03T01:56:35.201Z,82.10
2019-04-03T01:59:01.987Z,82.17
2019-04-03T02:01:28.787Z,82.51
2019-04-03T02:03:55.529Z,82.60
2019-04-03T02:06:22.284Z,82.62
2019-04-03T02:08:48.911Z,82.63
2019-04-03T02:11:16.775Z,82.70
2019-04-03T02:13:44.315Z,82.66
2019-04-03T02:16:11.151Z,81.53
2019-04-03T02:18:37.950Z,81.11
2019-04-03T02:21:04.748Z,81.58
2019-04-03T02:23:31.543Z,82.06
2019-04-03T02:25:58.320Z,81.74
2019-04-03T02:28:25.099Z,81.06
2019-04-03T02:30:51.905Z,81.54
2019-04-03T02:33:18.694Z,81.69
2019-04-03T02:35:45.827Z,81.85
2019-04-03T02:38:12.526Z,82.14
2019-04-03T02:40:39.375Z,82.57
2019-04-03T02:43:06.033Z,82.64
2019-04-03T02:45:33.259Z,82.98
2019-04-03T02:47:59.949Z,83.32
2019-04-03T02:50:26.778Z,83.74
2019-04-03T02:52:56.697Z,83.94
2019-04-03T02:55:23.372Z,83.94
2019-04-03T02:57:50.391Z,84.11
2019-04-03T03:00:17.442Z,84.46
2019-04-03T03:02:45.541Z,84.82
2019-04-03T03:05:13.460Z,85.42
2019-04-03T03:07:40.286Z,85.53
2019-04-03T03:10:07.789Z,85.26
2019-04-03T03:12:36.545Z,85.29
2019-04-03T03:15:04.945Z,84.82
2019-04-03T03:17:33.405Z,84.96
2019-04-03T03:20:06.525Z,85.52
2019-04-03T03:22:33.506Z,85.98
2019-04-03T03:25:01.328Z,86.89
2019-04-03T03:27:28.812Z,87.53
2019-04-03T03:29:58.474Z,87.97
2019-04-03T03:32:31.340Z,87.66
2019-04-03T03:35:06.208Z,87.19
2019-04-03T03:37:23.265Z,86.85
2019-04-03T03:39:51.085Z,86.62
2019-04-03T03:42:18.736Z,86.22
2019-04-03T03:44:46.746Z,86.36
2019-04-03T03:47:15.092Z,86.63
2019-04-03T03:49:43.154Z,86.30
2019-04-03T03:52:11.084Z,86.47
2019-04-03T03:54:59.361Z,86.73
2019-04-03T03:57:26.850Z,87.01
2019-04-03T03:59:53.801Z,87.36
2019-04-03T04:02:20.973Z,87.72
2019-04-03T04:04:48.820Z,88.05
2019-04-03T04:07:16.428Z,88.50
2019-04-03T04:09:43.459Z,88.62
2019-04-03T04:12:10.283Z,88.81
2019-04-03T04:14:37.043Z,88.86
2019-04-03T04:17:25.664Z,88.73
2019-04-03T04:19:52.801Z,87.94
2019-04-03T04:22:19.583Z,86.83
2019-04-03T04:24:46.254Z,86.04
2019-04-03T04:27:13.243Z,86.08
2019-04-03T04:29:41.593Z,86.58
2019-04-03T04:32:08.928Z,87.02
2019-04-03T04:34:35.870Z,87.40
2019-04-03T04:37:03.146Z,87.75
2019-04-03T04:39:30.101Z,87.99
2019-04-03T04:41:56.940Z,88.22
2019-04-03T04:44:23.714Z,88.23
2019-04-03T04:46:50.414Z,88.32
2019-04-03T04:49:17.098Z,87.85
2019-04-03T04:51:43.773Z,87.72
2019-04-03T04:54:10.585Z,86.95
2019-04-03T04:56:38.104Z,86.72
2019-04-03T04:59:05.355Z,86.26
2019-04-03T05:01:32.332Z,86.29
2019-04-03T05:03:59.113Z,85.70
2019-04-03T05:06:28.537Z,85.88
2019-04-03T05:08:54.670Z,86.17
2019-04-03T05:11:21.354Z,86.63
2019-04-03T05:13:48.114Z,87.09
2019-04-03T05:16:15.091Z,87.61
2019-04-03T05:18:42.072Z,87.95
2019-04-03T05:21:08.856Z,88.09
2019-04-03T05:23:35.622Z,87.96
2019-04-03T05:26:02.376Z,87.47
2019-04-03T05:28:29.172Z,87.33
2019-04-03T05:30:55.876Z,87.14
2019-04-03T05:33:22.638Z,87.12
2019-04-03T05:35:49.360Z,86.90
2019-04-03T05:38:16.044Z,86.34
2019-04-03T05:40:42.852Z,86.32
2019-04-03T05:43:09.817Z,86.33
2019-04-03T05:45:36.593Z,86.34
2019-04-03T05:48:04.220Z,85.11
2019-04-03T05:50:31.364Z,83.62
2019-04-03T05:52:58.151Z,83.56
2019-04-03T05:55:24.918Z,83.54
2019-04-03T05:57:51.833Z,83.36
2019-04-03T06:00:18.603Z,83.29
2019-04-03T06:02:45.307Z,82.95
2019-04-03T06:05:13.132Z,82.12
2019-04-03T06:07:40.149Z,81.52
2019-04-03T06:10:07.259Z,81.76
2019-04-03T06:12:36.560Z,80.24
2019-04-03T06:15:03.600Z,79.49
2019-04-03T06:17:30.286Z,79.86
2019-04-03T06:19:56.954Z,80.13
2019-04-03T06:22:23.743Z,79.71
2019-04-03T06:24:50.414Z,79.48
2019-04-03T06:27:19.144Z,78.03
2019-04-03T06:29:45.667Z,78.74
2019-04-03T06:32:12.360Z,77.87
2019-04-03T06:34:42.709Z,77.57
2019-04-03T06:37:07.632Z,77.64
2019-04-03T06:39:34.833Z,75.82
2019-04-03T06:42:01.680Z,75.12
2019-04-03T06:44:28.265Z,75.23
2019-04-03T06:46:55.080Z,73.58
2019-04-03T06:49:21.622Z,73.94
2019-04-03T06:51:49.425Z,72.46
2019-04-03T06:54:17.148Z,71.91
2019-04-03T06:56:43.938Z,69.29
2019-04-03T06:59:10.743Z,69.05
2019-04-03T07:01:37.436Z,67.50
2019-04-03T07:04:05.847Z,65.25
2019-04-03T07:06:32.909Z,65.07
2019-04-03T07:08:59.673Z,62.63
2019-04-03T07:11:26.347Z,62.52
2019-04-03T07:13:54.333Z,62.52
2019-04-03T07:16:21.428Z,62.24
2019-04-03T07:18:48.430Z,64.09
2019-04-03T07:21:15.094Z,64.01
2019-04-03T07:23:41.903Z,63.49
2019-04-03T07:26:08.677Z,65.59
2019-04-03T07:28:35.369Z,65.15
2019-04-03T07:31:02.141Z,65.48
2019-04-03T07:33:29.429Z,64.66
2019-04-03T07:35:56.357Z,62.74
2019-04-03T07:38:22.986Z,61.02
2019-04-03T07:40:51.765Z,58.64
2019-04-03T07:43:18.461Z,58.14
2019-04-03T07:45:45.241Z,58.78
2019-04-03T07:48:12.033Z,57.53
2019-04-03T07:50:41.065Z,56.59
2019-04-03T07:53:07.300Z,55.50
2019-04-03T07:55:34.080Z,55.02
2019-04-03T07:58:01.034Z,55.30
2019-04-03T08:00:28.518Z,55.44
2019-04-03T08:02:55.251Z,53.69
2019-04-03T08:05:22.259Z,52.48
2019-04-03T08:07:48.926Z,53.22
2019-04-03T08:10:15.904Z,53.70
2019-04-03T08:12:42.821Z,53.17
2019-04-03T08:15:12.651Z,53.56
2019-04-03T08:17:38.575Z,54.24
2019-04-03T08:20:05.941Z,54.05
2019-04-03T08:22:33.591Z,54.89
2019-04-03T08:25:01.019Z,54.55
2019-04-03T08:27:27.892Z,54.31
2019-04-03T08:29:54.589Z,53.35
2019-04-03T08:32:21.375Z,54.07
2019-04-03T08:34:48.773Z,54.56
2019-04-03T08:37:27.675Z,52.81
2019-04-03T08:39:44.309Z,51.57
2019-04-03T08:42:11.050Z,53.05
2019-04-03T08:44:37.771Z,53.90
2019-04-03T08:47:04.400Z,54.02
2019-04-03T08:49:31.087Z,53.65
2019-04-03T08:51:58.229Z,53.55
2019-04-03T08:54:25.051Z,53.14
2019-04-03T08:56:51.866Z,53.63
2019-04-03T08:59:18.933Z,53.73
2019-04-03T09:01:45.975Z,55.06
2019-04-03T09:04:12.792Z,54.03
2019-04-03T09:06:39.579Z,52.94
2019-04-03T09:09:08.447Z,52.48
2019-04-03T09:11:36.298Z,54.15
2019-04-03T09:14:03.895Z,53.33
2019-04-03T09:16:31.705Z,53.80
2019-04-03T09:18:59.049Z,53.25
2019-04-03T09:21:26.126Z,52.78
2019-04-03T09:23:52.898Z,53.83
2019-04-03T09:26:19.853Z,54.09
2019-04-03T09:28:46.647Z,53.02
2019-04-03T09:31:13.324Z,52.84
2019-04-03T09:33:40.012Z,53.77
2019-04-03T09:36:06.786Z,53.37
2019-04-03T09:38:35.529Z,51.12
2019-04-03T09:41:02.244Z,51.74
2019-04-03T09:43:29.037Z,52.03
2019-04-03T09:45:55.911Z,50.34
2019-04-03T09:48:22.969Z,48.16
2019-04-03T09:50:49.918Z,46.86
2019-04-03T09:53:17.102Z,47.75
2019-04-03T09:55:43.859Z,49.61
2019-04-03T09:58:10.677Z,52.29
2019-04-03T10:00:37.550Z,50.77
2019-04-03T10:03:05.920Z,51.64
2019-04-03T10:05:32.911Z,52.47
2019-04-03T10:07:59.679Z,51.84
2019-04-03T10:10:26.831Z,51.76
2019-04-03T10:12:54.572Z,51.24
2019-04-03T10:15:21.934Z,52.17
2019-04-03T10:17:48.817Z,50.86
2019-04-03T10:20:17.275Z,51.60
2019-04-03T10:22:44.364Z,50.66
2019-04-03T10:25:11.497Z,50.65
2019-04-03T10:27:38.248Z,51.44
2019-04-03T10:30:06.388Z,50.17
2019-04-03T10:32:33.046Z,50.64
2019-04-03T10:35:00.040Z,50.27
2019-04-03T10:37:26.815Z,51.04
2019-04-03T10:39:53.969Z,50.22
2019-04-03T10:42:20.664Z,50.22
2019-04-03T10:44:47.556Z,49.95
2019-04-03T10:47:14.811Z,48.94
2019-04-03T10:49:41.631Z,48.73
2019-04-03T10:52:08.406Z,48.82
2019-04-03T10:54:37.584Z,47.40
2019-04-03T10:57:04.151Z,46.91
2019-04-03T10:59:31.072Z,46.53
2019-04-03T11:01:57.852Z,45.43
2019-04-03T11:04:24.513Z,46.11
2019-04-03T11:06:51.210Z,45.46
2019-04-03T11:09:17.999Z,46.49
2019-04-03T11:11:44.665Z,46.75
2019-04-03T11:14:11.863Z,46.10
2019-04-03T11:16:39.433Z,45.21
2019-04-03T11:19:07.346Z,44.15
2019-04-03T11:21:34.399Z,44.31
2019-04-03T11:24:01.355Z,44.69
2019-04-03T11:26:28.178Z,46.43
2019-04-03T11:28:54.928Z,46.96
2019-04-03T11:31:26.617Z,48.31
2019-04-03T11:33:51.461Z,48.17
2019-04-03T11:36:18.296Z,48.77
2019-04-03T11:38:45.069Z,50.01
2019-04-03T11:41:17.655Z,49.24
2019-04-03T11:43:40.825Z,49.68
2019-04-03T11:46:07.702Z,49.96
2019-04-03T11:48:34.652Z,48.83
2019-04-03T11:51:01.722Z,48.92
2019-04-03T11:53:29.144Z,49.30
2019-04-03T11:55:56.357Z,49.30
2019-04-03T11:58:23.325Z,48.22
2019-04-03T12:00:51.048Z,47.71
2019-04-03T12:03:17.802Z,47.46
2019-04-03T12:05:45.746Z,48.04
2019-04-03T12:08:13.184Z,48.83
2019-04-03T12:10:39.872Z,46.69
2019-04-03T12:13:07.048Z,46.92
2019-04-03T12:15:34.804Z,48.35
2019-04-03T12:18:02.499Z,49.55
2019-04-03T12:20:29.666Z,50.06
2019-04-03T12:22:56.461Z,49.23
2019-04-03T12:25:23.223Z,49.82
2019-04-03T12:27:50.025Z,48.41
2019-04-03T12:30:17.335Z,48.59
2019-04-03T12:32:48.616Z,48.90
2019-04-03T12:35:13.935Z,49.88
2019-04-03T12:37:41.327Z,51.21
2019-04-03T12:40:08.563Z,50.06
2019-04-03T12:42:35.777Z,49.50
2019-04-03T12:45:04.211Z,49.32
2019-04-03T12:47:31.381Z,49.98
2019-04-03T12:49:58.395Z,51.63
2019-04-03T12:52:25.313Z,52.10
2019-04-03T12:54:53.776Z,51.73
2019-04-03T12:57:21.100Z,57.78
2019-04-03T12:59:48.215Z,63.17
2019-04-03T13:02:14.984Z,67.43
2019-04-03T13:04:41.652Z,71.10
2019-04-03T13:07:08.850Z,72.34
2019-04-03T13:09:37.889Z,73.71
2019-04-03T13:12:04.900Z,73.20
2019-04-03T13:14:33.107Z,70.29
2019-04-03T13:17:00.611Z,68.16
2019-04-03T13:19:27.628Z,68.43
2019-04-03T13:21:54.360Z,67.71
2019-04-03T13:24:21.430Z,68.72
2019-04-03T13:26:48.313Z,69.87
2019-04-03T13:29:15.288Z,70.17
2019-04-03T13:31:44.474Z,70.40
2019-04-03T13:34:12.463Z,70.82
2019-04-03T13:36:39.264Z,71.36
2019-04-03T13:39:06.555Z,70.80
2019-04-03T13:41:34.774Z,70.30
2019-04-03T13:44:02.279Z,70.07
2019-04-03T13:46:28.985Z,68.27
2019-04-03T13:48:56.040Z,69.83
2019-04-03T13:51:24.172Z,69.76
2019-04-03T13:53:53.001Z,71.02
2019-04-03T13:56:23.112Z,72.91
2019-04-03T13:58:48.831Z,75.38
2019-04-03T14:01:16.217Z,73.85
2019-04-03T14:06:26.882Z,81.96
2019-04-03T14:08:53.546Z,83.41
2019-04-03T14:11:20.231Z,82.66
2019-04-03T14:13:46.785Z,84.05
2019-04-03T14:16:20.293Z,83.31
2019-04-03T14:18:42.374Z,80.70
2019-04-03T14:21:09.570Z,81.99
2019-04-03T14:23:36.830Z,81.21
2019-04-03T14:26:08.367Z,81.34
2019-04-03T14:28:35.290Z,83.06
2019-04-03T14:31:04.961Z,80.22
2019-04-03T14:33:42.229Z,79.53
2019-04-03T14:35:59.666Z,75.14
2019-04-03T14:38:28.611Z,71.55
2019-04-03T14:40:54.951Z,73.02
2019-04-03T14:43:22.328Z,64.76
2019-04-03T14:45:49.648Z,60.09
2019-04-03T14:48:16.418Z,52.75
2019-04-03T14:50:43.228Z,47.66
2019-04-03T14:53:09.932Z,54.03
2019-04-03T14:55:46.988Z,54.28
2019-04-03T14:58:05.506Z,58.45
2019-04-03T15:00:32.613Z,61.86
2019-04-03T15:02:59.399Z,62.59
2019-04-03T15:05:26.285Z,65.02
2019-04-03T15:07:53.923Z,65.27
2019-04-03T15:10:20.813Z,65.45
2019-04-03T15:12:47.740Z,62.64
2019-04-03T15:15:14.907Z,58.12
2019-04-03T15:17:41.667Z,53.88
2019-04-03T15:20:09.534Z,48.27
2019-04-03T15:22:36.446Z,47.32
2019-04-03T15:25:03.453Z,44.45
2019-04-03T15:27:30.239Z,48.98
2019-04-03T15:29:56.802Z,54.13
2019-04-03T15:32:23.393Z,54.61
2019-04-03T15:34:51.243Z,58.27
2019-04-03T15:37:18.544Z,61.41
2019-04-03T15:39:47.797Z,63.74
2019-04-03T15:42:14.035Z,65.01
2019-04-03T15:44:40.710Z,65.18
2019-04-03T15:47:09.338Z,64.50
2019-04-03T15:49:36.112Z,63.30
2019-04-03T15:52:02.971Z,61.51
2019-04-03T15:54:32.544Z,63.18
2019-04-03T15:56:58.854Z,62.60
2019-04-03T15:59:27.135Z,63.14
2019-04-03T16:01:54.783Z,63.30
2019-04-03T16:04:21.768Z,62.36
2019-04-03T16:06:48.441Z,62.66
2019-04-03T16:09:18.305Z,63.56
2019-04-03T16:11:43.907Z,63.48
2019-04-03T16:14:10.700Z,63.84
2019-04-03T16:16:37.378Z,63.77
2019-04-03T16:19:04.169Z,65.67
2019-04-03T16:21:31.447Z,64.28
2019-04-03T16:23:58.341Z,65.73
2019-04-03T16:26:25.626Z,65.10
2019-04-03T16:28:52.435Z,65.96
2019-04-03T16:31:20.559Z,66.23
2019-04-03T16:33:47.921Z,67.16
2019-04-03T16:36:16.575Z,68.56
2019-04-03T16:38:43.706Z,68.33
2019-04-03T16:41:11.633Z,68.24
2019-04-03T16:43:39.270Z,68.63
2019-04-03T16:46:06.045Z,69.69
2019-04-03T16:48:33.321Z,69.31
2019-04-03T16:51:00.838Z,70.91
2019-04-03T16:53:28.454Z,70.00
2019-04-03T16:55:55.168Z,71.70
2019-04-03T16:58:21.895Z,71.36
2019-04-03T17:00:49.448Z,70.99
2019-04-03T17:03:16.150Z,71.09
2019-04-03T17:05:44.036Z,72.01
2019-04-03T17:08:11.345Z,73.24
2019-04-03T17:10:40.358Z,73.61
2019-04-03T17:13:06.608Z,74.01
2019-04-03T17:15:35.107Z,74.26
2019-04-03T17:18:01.971Z,74.03
2019-04-03T17:20:28.735Z,74.43
2019-04-03T17:22:55.857Z,75.00
2019-04-03T17:25:23.258Z,74.69
2019-04-03T17:27:57.372Z,75.08
2019-04-03T17:30:19.467Z,75.07
2019-04-03T17:32:46.830Z,76.25
2019-04-03T17:35:15.038Z,75.90
2019-04-03T17:37:42.297Z,75.35
2019-04-03T17:40:09.563Z,76.38
2019-04-03T17:42:37.123Z,76.43
2019-04-03T17:45:05.836Z,77.02
2019-04-03T17:47:32.506Z,77.17
2019-04-03T17:49:59.883Z,74.91
2019-04-03T17:52:26.683Z,75.13
2019-04-03T17:54:53.485Z,76.81
2019-04-03T17:57:20.282Z,77.73
2019-04-03T17:59:48.844Z,77.89
2019-04-03T18:02:15.546Z,77.63
2019-04-03T18:04:42.229Z,78.07
2019-04-03T18:07:08.902Z,79.16
2019-04-03T18:09:36.419Z,79.18
2019-04-03T18:12:03.861Z,78.94
2019-04-03T18:14:30.571Z,78.80
2019-04-03T18:16:57.253Z,79.26
2019-04-03T18:19:36.580Z,79.36
2019-04-03T18:21:52.631Z,79.91
2019-04-03T18:24:19.423Z,79.69
2019-04-03T18:26:46.201Z,79.18
2019-04-03T18:29:14.026Z,79.80
2019-04-03T18:31:40.819Z,79.53
2019-04-03T18:34:07.509Z,78.94
2019-04-03T18:36:34.271Z,78.89
2019-04-03T18:39:01.063Z,78.81
2019-04-03T18:41:27.734Z,78.86
2019-04-03T18:43:55.058Z,79.27
2019-04-03T18:46:31.525Z,79.23
2019-04-03T18:48:54.690Z,78.58
2019-04-03T18:51:20.363Z,78.47
2019-04-03T18:53:47.087Z,78.18
2019-04-03T18:56:15.538Z,78.50
2019-04-03T18:58:44.065Z,78.99
2019-04-03T19:01:10.964Z,78.89
2019-04-03T19:03:37.631Z,78.30
2019-04-03T19:06:04.816Z,78.75
2019-04-03T19:08:31.584Z,79.04
2019-04-03T19:11:02.293Z,79.46
2019-04-03T19:13:26.788Z,77.88
2019-04-03T19:15:53.578Z,78.35
2019-04-03T19:18:20.219Z,79.41
2019-04-03T19:20:46.938Z,79.43
2019-04-03T19:23:13.543Z,79.14
2019-04-03T19:25:40.246Z,78.99
2019-04-03T19:28:06.827Z,79.37
2019-04-03T19:30:33.615Z,79.47
2019-04-03T19:33:00.326Z,81.59
2019-04-03T19:35:28.500Z,84.32
2019-04-03T19:37:55.479Z,85.91
2019-04-03T19:40:22.268Z,87.03
2019-04-03T19:42:49.106Z,87.63
2019-04-03T19:45:16.039Z,87.65
2019-04-03T19:47:42.827Z,86.73
2019-04-03T19:50:10.228Z,86.55
2019-04-03T19:52:37.513Z,86.68
2019-04-03T19:55:05.358Z,86.79
2019-04-03T19:57:32.150Z,85.24
2019-04-03T19:59:58.848Z,86.03
2019-04-03T20:02:25.695Z,86.79
2019-04-03T20:04:52.463Z,86.83
2019-04-03T20:07:19.149Z,87.21
2019-04-03T20:09:45.923Z,87.69
2019-04-03T20:12:12.604Z,87.55
2019-04-03T20:14:42.248Z,88.54
2019-04-03T20:17:07.869Z,89.13
2019-04-03T20:19:34.561Z,89.71
2019-04-03T20:22:01.245Z,89.61
2019-04-03T20:24:27.855Z,88.91
2019-04-03T20:26:54.446Z,88.29
2019-04-03T20:29:21.146Z,88.32
2019-04-03T20:31:47.816Z,88.90
2019-04-03T20:34:14.393Z,88.80
2019-04-03T20:36:41.069Z,89.13
2019-04-03T20:39:08.340Z,89.41
2019-04-03T20:41:35.327Z,89.83
2019-04-03T20:44:02.137Z,89.75
2019-04-03T20:46:28.908Z,89.43
2019-04-03T20:48:56.832Z,89.78
2019-04-03T20:51:24.169Z,90.03
2019-04-03T20:53:50.898Z,90.14
2019-04-03T20:56:17.615Z,89.98
2019-04-03T20:58:55.348Z,89.80
2019-04-03T21:01:12.997Z,89.92
2019-04-03T21:03:39.549Z,90.05
2019-04-03T21:06:06.456Z,90.06
2019-04-03T21:08:33.029Z,90.56
2019-04-03T21:11:01.747Z,88.42
2019-04-03T21:13:28.257Z,88.37
2019-04-03T21:15:54.816Z,90.08
2019-04-03T21:18:21.400Z,90.57
2019-04-03T21:20:48.163Z,90.96
2019-04-03T21:23:14.938Z,91.41
2019-04-03T21:25:41.519Z,91.72
2019-04-03T21:28:08.975Z,92.04
2019-04-03T21:30:36.864Z,91.78
2019-04-03T21:33:03.650Z,92.04
2019-04-03T21:35:30.211Z,92.22
2019-04-03T21:37:56.897Z,92.47
2019-04-03T21:40:23.690Z,92.09
2019-04-03T21:42:50.355Z,91.65
2019-04-03T21:45:17.128Z,91.73
2019-04-03T21:47:43.814Z,91.96
2019-04-03T21:50:10.692Z,92.23
2019-04-03T21:52:37.475Z,92.54
2019-04-03T21:55:05.507Z,92.72
2019-04-03T21:57:32.134Z,92.84
2019-04-03T21:59:58.925Z,92.86
2019-04-03T22:02:25.722Z,92.91
2019-04-03T22:04:53.877Z,92.97
2019-04-03T22:07:21.090Z,93.02
2019-04-03T22:09:47.670Z,93.03
2019-04-03T22:12:14.377Z,92.99
2019-04-03T22:14:42.912Z,92.97
2019-04-03T22:17:09.630Z,93.03
2019-04-03T22:19:36.290Z,93.09
2019-04-03T22:22:03.630Z,93.06
2019-04-03T22:24:30.551Z,93.07
2019-04-03T22:26:57.143Z,93.01
2019-04-03T22:29:23.821Z,93.05
2019-04-03T22:31:53.769Z,93.16
2019-04-03T22:34:19.072Z,93.27
2019-04-03T22:36:45.777Z,93.26
2019-04-03T22:39:13.755Z,93.30
2019-04-03T22:41:40.952Z,93.27
2019-04-03T22:44:08.981Z,93.36
2019-04-03T22:46:35.639Z,93.43
2019-04-03T22:49:02.439Z,93.46
2019-04-03T22:51:29.185Z,93.45
2019-04-03T22:53:55.862Z,93.50
2019-04-03T22:56:22.518Z,93.52
2019-04-03T22:58:52.680Z,93.39
2019-04-03T23:01:17.891Z,93.41
2019-04-03T23:03:44.574Z,93.41
2019-04-03T23:06:11.252Z,93.47
2019-04-03T23:08:37.935Z,93.44
2019-04-03T23:11:04.620Z,93.30
2019-04-03T23:13:31.523Z,92.86
2019-04-03T23:15:58.294Z,92.85
2019-04-03T23:18:24.989Z,92.89
2019-04-03T23:20:52.837Z,93.14
2019-04-03T23:23:22.311Z,92.97
2019-04-03T23:25:49.086Z,93.20
2019-04-03T23:28:15.894Z,93.14
2019-04-03T23:30:42.567Z,93.25
2019-04-03T23:33:10.449Z,93.15
2019-04-03T23:35:37.015Z,93.22
2019-04-03T23:38:03.799Z,93.16
2019-04-03T23:40:30.566Z,93.28
2019-04-03T23:42:57.346Z,93.41
2019-04-03T23:45:26.330Z,93.37
2019-04-03T23:47:53.016Z,93.47
2019-04-03T23:50:20.010Z,93.35
2019-04-03T23:52:48.373Z,93.27
2019-04-03T23:55:15.033Z,93.41
2019-04-03T23:57:41.757Z,93.53
